Skip Navigation Links
NOAA logo - Click to go to the NOAA homepage
NOAA's National Weather Service
Alaska Aviation Weather Unit
  NWS logo - Click to go to the NWS homepage
Left Navbar Graphic     08 AKDT = 16 GMT

   
NOAA is celebrating 200 years of science, service, and stewardship. Visit the NOAA 200th celebration Web site to learn more.
USA.gov is the U.S. Government's official Web portal to all Federal, state and local government Web resources and services.
Facebook
NWS on Facebook

Important Change Regarding the AAWU Web Presence

 

Over the last several months, the AAWU has been working to navigate its webpages to a nationally supported server. Security, as well as other needs, have necessitated the change.  In the process, we have made an effort to enhance the functionality of our website, as well as some of our products. As of June 20, 2017, aawu.arh.noaa.gov will be discontinued. The new AAWU web address is weather.gov/aawu. It is now live and will run in-parallel with the old site until it is discontinued. Please send any feedback or questions regarding the new webpages to nws.ar.aawu.webauthors@noaa.gov.  Thank you for your patience during this time of transition.
AAWU Home :: Display TAF Add Bookmark
TAF PASI 231608Z 2316/2412 30008KT 5SM -SHRA BR FEW004 OVC020
      TEMPO 2316/2318 3SM -SHRA BR BKN010
     FM231800 30010KT P6SM SCT015 OVC035
     FM232100 29012KT P6SM SCT020 BKN050 WS020/32030KT=
PASI 231012Z 00000KT 2 1/2SM -RA BR OVC004 08/08 A2985=

SPECI PASI 231012Z 00000KT 2 1/2SM -RA BR OVC004 08/08 A2985 RMK AO2
     RAB01 P0000 T00830083=

PASI 231022Z 00000KT 3SM -RA BR OVC006 08/08 A2985=

SPECI PASI 231022Z 00000KT 3SM -RA BR OVC006 08/08 A2985 RMK AO2 RAB01
     CIG 003V009 P0001 T00830083=

PASI 231035Z 00000KT 2 1/2SM -RA BR BKN006 OVC011 08/08 A2984=

SPECI PASI 231035Z 00000KT 2 1/2SM -RA BR BKN006 OVC011 08/08 A2984 RMK
     AO2 RAB01 P0001 T00830083=

PASI 231044Z 00000KT 3SM -RA BR SCT006 BKN011 OVC019 08/08 A2984=

SPECI PASI 231044Z 00000KT 3SM -RA BR SCT006 BKN011 OVC019 08/08 A2984
     RMK AO2 RAB01 P0002 T00830083=

METAR PASI 231053Z 00000KT 4SM BR SCT004 BKN011 OVC019 08/08 A2984=

SPECI PASI 231107Z 00000KT 4SM BR FEW004 OVC019 08/08 A2983 RMK AO2
     T00830083=

PASI 231138Z 00000KT 7SM FEW003 BKN013 OVC020 08/08 A2982=

SPECI PASI 231138Z 00000KT 7SM FEW003 BKN013 OVC020 08/08 A2982 RMK AO2
     T00830083=

METAR PASI 231153Z 00000KT 7SM SCT003 BKN013 OVC020 08/08 A2982=

PASI 231204Z 00000KT 7SM BKN006 OVC013 08/08 A2981=

SPECI PASI 231204Z 00000KT 7SM BKN006 OVC013 08/08 A2981 RMK AO2 CIG
     003V009 T00830083=

PASI 231214Z 00000KT 4SM -RA BR BKN003 OVC008 08/08 A2981=

SPECI PASI 231214Z 00000KT 4SM -RA BR BKN003 OVC008 08/08 A2981 RMK AO2
     RAB11 P0000 T00830083=

PASI 231243Z 32003KT 6SM -RA BR OVC004 08/08 A2981=

SPECI PASI 231243Z 32003KT 6SM -RA BR OVC004 08/08 A2981 RMK AO2 RAB11
     P0001 T00830083=

METAR PASI 231253Z 32003KT 6SM -RA BR OVC005 08/08 A2981=

SPECI PASI 231337Z 00000KT 10SM SCT005 OVC012 08/08 A2980 RMK AO2
 RAE14 P0000 T00780078 $=

METAR PASI 231353Z 32003KT 9SM -RA SCT006 OVC012 08/08 A2980=

PASI 231404Z 32003KT 10SM -RA BKN008 OVC011 08/08 A2980=

SPECI PASI 231404Z 32003KT 10SM -RA BKN008 OVC011 08/08 A2980 RMK AO2
     P0000 T00830083 $=

METAR PASI 231453Z 34004KT 8SM -RA BKN006 OVC012 08/08 A2980=

PASI 231532Z 30009KT 4SM -RA BR BKN010 OVC023 08/08 A2981=

SPECI PASI 231532Z 30009KT 4SM -RA BR BKN010 OVC023 08/08 A2981 RMK AO2
     P0002 T00830083=

METAR PASI 231553Z 30008KT 4SM -RA BR BKN010 OVC025 09/08 A2981=


NOAA's National Weather Service
Alaska Aviation Weather Unit
6930 Sand Lake Road
Anchorage, AK 99502-1845
Disclaimer
Credits
Glossary
Privacy Policy
About Us
Career Opportunities
Contact AAWU Internet Services Site last modified: April, 17th 2012